sensor_id;sensor_type;location;lat;lon;timestamp;pressure;altitude;pressure_sealevel;temperature;humidity
80938;BME280;70395;51.382;7.074;2023-06-04T00:02:02;100853.31;;;12.63;40.87
80938;BME280;70395;51.382;7.074;2023-06-04T00:04:28;100852.06;;;12.57;40.74
80938;BME280;70395;51.382;7.074;2023-06-04T00:06:54;100849.81;;;12.53;40.97
80938;BME280;70395;51.382;7.074;2023-06-04T00:09:20;100852.06;;;12.47;40.98
80938;BME280;70395;51.382;7.074;2023-06-04T00:11:46;100849.81;;;12.43;40.99
80938;BME280;70395;51.382;7.074;2023-06-04T00:14:13;100846.72;;;12.37;41.44
80938;BME280;70395;51.382;7.074;2023-06-04T00:16:39;100837.38;;;12.32;41.52
80938;BME280;70395;51.382;7.074;2023-06-04T00:19:06;100844.03;;;12.27;41.54
80938;BME280;70395;51.382;7.074;2023-06-04T00:21:32;100846.31;;;12.22;41.65
80938;BME280;70395;51.382;7.074;2023-06-04T00:24:00;100840.50;;;12.17;41.83
80938;BME280;70395;51.382;7.074;2023-06-04T00:26:26;100851.56;;;12.14;42.09
80938;BME280;70395;51.382;7.074;2023-06-04T00:28:53;100839.34;;;12.10;42.17
80938;BME280;70395;51.382;7.074;2023-06-04T00:31:19;100834.28;;;12.07;42.14
80938;BME280;70395;51.382;7.074;2023-06-04T00:33:49;100836.53;;;12.01;42.23
80938;BME280;70395;51.382;7.074;2023-06-04T00:36:15;100843.91;;;11.99;42.08
80938;BME280;70395;51.382;7.074;2023-06-04T00:38:41;100844.19;;;11.96;42.46
80938;BME280;70395;51.382;7.074;2023-06-04T00:41:07;100849.69;;;11.94;42.28
80938;BME280;70395;51.382;7.074;2023-06-04T00:43:33;100851.66;;;11.92;42.52
80938;BME280;70395;51.382;7.074;2023-06-04T00:46:02;100846.44;;;11.91;42.55
80938;BME280;70395;51.382;7.074;2023-06-04T00:48:29;100835.97;;;11.88;42.52
80938;BME280;70395;51.382;7.074;2023-06-04T00:50:57;100841.50;;;11.86;42.49
80938;BME280;70395;51.382;7.074;2023-06-04T00:53:24;100838.22;;;11.82;42.94
80938;BME280;70395;51.382;7.074;2023-06-04T00:55:51;100841.22;;;11.79;43.07
80938;BME280;70395;51.382;7.074;2023-06-04T00:58:17;100847.72;;;11.77;43.15
80938;BME280;70395;51.382;7.074;2023-06-04T01:00:44;100858.72;;;11.74;43.21
80938;BME280;70395;51.382;7.074;2023-06-04T01:03:18;100858.44;;;11.67;43.49
80938;BME280;70395;51.382;7.074;2023-06-04T01:05:57;100860.53;;;11.63;43.70
80938;BME280;70395;51.382;7.074;2023-06-04T01:08:27;100861.66;;;11.60;43.71
80938;BME280;70395;51.382;7.074;2023-06-04T01:10:54;100851.34;;;11.56;43.68
80938;BME280;70395;51.382;7.074;2023-06-04T01:13:22;100850.63;;;11.54;43.73
80938;BME280;70395;51.382;7.074;2023-06-04T01:15:48;100851.06;;;11.49;43.63
80938;BME280;70395;51.382;7.074;2023-06-04T01:18:27;100849.66;;;11.45;43.92
80938;BME280;70395;51.382;7.074;2023-06-04T01:21:07;100849.06;;;11.41;43.81
80938;BME280;70395;51.382;7.074;2023-06-04T01:23:54;100857.13;;;11.41;43.78
80938;BME280;70395;51.382;7.074;2023-06-04T01:26:30;100855.69;;;11.37;43.86
80938;BME280;70395;51.382;7.074;2023-06-04T01:28:58;100846.94;;;11.35;44.09
80938;BME280;70395;51.382;7.074;2023-06-04T01:31:25;100849.88;;;11.32;44.48
80938;BME280;70395;51.382;7.074;2023-06-04T01:33:55;100858.09;;;11.30;44.31
80938;BME280;70395;51.382;7.074;2023-06-04T01:36:24;100863.56;;;11.29;44.95
80938;BME280;70395;51.382;7.074;2023-06-04T01:38:50;100853.13;;;11.25;45.00
80938;BME280;70395;51.382;7.074;2023-06-04T01:41:17;100857.75;;;11.23;45.22
80938;BME280;70395;51.382;7.074;2023-06-04T01:43:43;100862.56;;;11.20;45.19
80938;BME280;70395;51.382;7.074;2023-06-04T01:46:09;100856.50;;;11.18;45.31
80938;BME280;70395;51.382;7.074;2023-06-04T01:48:34;100865.53;;;11.17;45.33
80938;BME280;70395;51.382;7.074;2023-06-04T01:51:01;100863.25;;;11.12;45.50
80938;BME280;70395;51.382;7.074;2023-06-04T01:53:27;100857.16;;;11.10;45.38
80938;BME280;70395;51.382;7.074;2023-06-04T01:55:53;100856.47;;;11.08;45.58
80938;BME280;70395;51.382;7.074;2023-06-04T01:58:20;100853.19;;;11.04;45.33
80938;BME280;70395;51.382;7.074;2023-06-04T02:00:53;100852.47;;;11.02;45.49
80938;BME280;70395;51.382;7.074;2023-06-04T02:03:22;100848.94;;;11.01;45.54
80938;BME280;70395;51.382;7.074;2023-06-04T02:05:49;100853.59;;;10.99;45.72
80938;BME280;70395;51.382;7.074;2023-06-04T02:08:16;100853.84;;;10.96;45.85
80938;BME280;70395;51.382;7.074;2023-06-04T02:10:47;100859.50;;;10.93;45.82
80938;BME280;70395;51.382;7.074;2023-06-04T02:13:13;100848.88;;;10.91;45.85
80938;BME280;70395;51.382;7.074;2023-06-04T02:15:39;100854.66;;;10.87;46.05
80938;BME280;70395;51.382;7.074;2023-06-04T02:18:16;100859.56;;;10.81;46.29
80938;BME280;70395;51.382;7.074;2023-06-04T02:20:47;100863.41;;;10.79;46.20
80938;BME280;70395;51.382;7.074;2023-06-04T02:23:16;100859.97;;;10.77;46.34
80938;BME280;70395;51.382;7.074;2023-06-04T02:25:43;100862.94;;;10.74;46.36
80938;BME280;70395;51.382;7.074;2023-06-04T02:28:13;100865.19;;;10.68;46.49
80938;BME280;70395;51.382;7.074;2023-06-04T02:30:40;100862.03;;;10.63;47.03
80938;BME280;70395;51.382;7.074;2023-06-04T02:33:05;100862.28;;;10.60;46.92
80938;BME280;70395;51.382;7.074;2023-06-04T02:35:32;100864.66;;;10.53;46.88
80938;BME280;70395;51.382;7.074;2023-06-04T02:37:58;100859.66;;;10.48;47.02
80938;BME280;70395;51.382;7.074;2023-06-04T02:40:27;100859.91;;;10.45;47.09
80938;BME280;70395;51.382;7.074;2023-06-04T02:42:55;100864.56;;;10.43;47.17
80938;BME280;70395;51.382;7.074;2023-06-04T02:45:22;100864.81;;;10.40;47.19
80938;BME280;70395;51.382;7.074;2023-06-04T02:47:48;100864.97;;;10.39;46.81
80938;BME280;70395;51.382;7.074;2023-06-04T02:50:15;100860.72;;;10.36;47.18
80938;BME280;70395;51.382;7.074;2023-06-04T02:52:41;100862.69;;;10.34;47.10
80938;BME280;70395;51.382;7.074;2023-06-04T02:55:08;100856.59;;;10.32;47.33
80938;BME280;70395;51.382;7.074;2023-06-04T02:57:34;100869.16;;;10.31;47.33
80938;BME280;70395;51.382;7.074;2023-06-04T03:00:01;100863.94;;;10.30;47.33
80938;BME280;70395;51.382;7.074;2023-06-04T03:02:28;100864.03;;;10.28;47.36
80938;BME280;70395;51.382;7.074;2023-06-04T03:04:53;100863.19;;;10.28;47.46
80938;BME280;70395;51.382;7.074;2023-06-04T03:07:21;100866.84;;;10.27;47.46
80938;BME280;70395;51.382;7.074;2023-06-04T03:09:49;100862.47;;;10.25;47.64
80938;BME280;70395;51.382;7.074;2023-06-04T03:12:15;100869.53;;;10.27;47.81
80938;BME280;70395;51.382;7.074;2023-06-04T03:14:41;100863.19;;;10.28;47.89
80938;BME280;70395;51.382;7.074;2023-06-04T03:17:06;100867.72;;;10.27;47.95
80938;BME280;70395;51.382;7.074;2023-06-04T03:19:40;100870.50;;;10.25;48.07
80938;BME280;70395;51.382;7.074;2023-06-04T03:22:08;100868.81;;;10.24;48.20
80938;BME280;70395;51.382;7.074;2023-06-04T03:24:41;100872.47;;;10.23;48.37
80938;BME280;70395;51.382;7.074;2023-06-04T03:27:09;100875.16;;;10.23;48.45
80938;BME280;70395;51.382;7.074;2023-06-04T03:29:36;100877.97;;;10.22;48.47
80938;BME280;70395;51.382;7.074;2023-06-04T03:32:03;100877.25;;;10.20;48.79
80938;BME280;70395;51.382;7.074;2023-06-04T03:34:29;100875.69;;;10.17;48.72
80938;BME280;70395;51.382;7.074;2023-06-04T03:36:59;100875.06;;;10.13;48.88
80938;BME280;70395;51.382;7.074;2023-06-04T03:39:25;100884.22;;;10.11;48.86
80938;BME280;70395;51.382;7.074;2023-06-04T03:41:51;100882.53;;;10.10;49.07
80938;BME280;70395;51.382;7.074;2023-06-04T03:44:18;100882.66;;;10.08;49.23
80938;BME280;70395;51.382;7.074;2023-06-04T03:46:44;100877.56;;;10.05;49.39
80938;BME280;70395;51.382;7.074;2023-06-04T03:49:12;100877.81;;;10.02;49.51
80938;BME280;70395;51.382;7.074;2023-06-04T03:51:38;100879.06;;;9.98;49.63
80938;BME280;70395;51.382;7.074;2023-06-04T03:54:04;100879.31;;;9.95;49.85
80938;BME280;70395;51.382;7.074;2023-06-04T03:56:30;100885.88;;;9.90;49.94
80938;BME280;70395;51.382;7.074;2023-06-04T03:58:57;100895.88;;;9.88;50.06
80938;BME280;70395;51.382;7.074;2023-06-04T04:01:23;100892.59;;;9.85;50.10
80938;BME280;70395;51.382;7.074;2023-06-04T04:03:50;100893.47;;;9.85;50.28
80938;BME280;70395;51.382;7.074;2023-06-04T04:06:17;100889.94;;;9.85;50.40
80938;BME280;70395;51.382;7.074;2023-06-04T04:08:44;100882.75;;;9.85;50.45
80938;BME280;70395;51.382;7.074;2023-06-04T04:11:14;100884.44;;;9.86;50.56
80938;BME280;70395;51.382;7.074;2023-06-04T04:13:40;100875.28;;;9.89;50.70
80938;BME280;70395;51.382;7.074;2023-06-04T04:16:06;100890.41;;;9.90;51.18
80938;BME280;70395;51.382;7.074;2023-06-04T04:18:34;100884.19;;;9.89;51.67
80938;BME280;70395;51.382;7.074;2023-06-04T04:21:00;100884.31;;;9.88;52.07
80938;BME280;70395;51.382;7.074;2023-06-04T04:23:28;100886.25;;;9.86;52.01
80938;BME280;70395;51.382;7.074;2023-06-04T04:25:54;100881.88;;;9.85;51.95
80938;BME280;70395;51.382;7.074;2023-06-04T04:28:22;100881.75;;;9.86;52.19
80938;BME280;70395;51.382;7.074;2023-06-04T04:30:48;100888.56;;;9.90;52.06
80938;BME280;70395;51.382;7.074;2023-06-04T04:33:14;100882.69;;;9.97;51.97
80938;BME280;70395;51.382;7.074;2023-06-04T04:35:42;100886.44;;;10.06;51.99
80938;BME280;70395;51.382;7.074;2023-06-04T04:38:10;100874.94;;;10.15;51.92
80938;BME280;70395;51.382;7.074;2023-06-04T04:40:37;100878.69;;;10.24;52.05
80938;BME280;70395;51.382;7.074;2023-06-04T04:43:03;100877.03;;;10.33;52.21
80938;BME280;70395;51.382;7.074;2023-06-04T04:45:29;100873.56;;;10.42;52.14
80938;BME280;70395;51.382;7.074;2023-06-04T04:47:55;100886.97;;;10.54;52.07
80938;BME280;70395;51.382;7.074;2023-06-04T04:50:21;100879.56;;;10.67;51.77
80938;BME280;70395;51.382;7.074;2023-06-04T04:52:46;100880.06;;;10.83;51.63
80938;BME280;70395;51.382;7.074;2023-06-04T04:55:12;100881.53;;;10.97;51.32
80938;BME280;70395;51.382;7.074;2023-06-04T04:57:38;100870.44;;;11.11;51.26
80938;BME280;70395;51.382;7.074;2023-06-04T05:00:05;100875.44;;;11.26;51.23
80938;BME280;70395;51.382;7.074;2023-06-04T05:02:35;100881.16;;;11.43;50.72
80938;BME280;70395;51.382;7.074;2023-06-04T05:05:03;100885.28;;;11.57;50.62
80938;BME280;70395;51.382;7.074;2023-06-04T05:07:29;100884.75;;;11.73;50.60
80938;BME280;70395;51.382;7.074;2023-06-04T05:09:55;100886.91;;;11.89;50.26
80938;BME280;70395;51.382;7.074;2023-06-04T05:12:21;100890.00;;;12.04;49.82
80938;BME280;70395;51.382;7.074;2023-06-04T05:14:46;100892.16;;;12.21;49.59
80938;BME280;70395;51.382;7.074;2023-06-04T05:17:12;100886.34;;;12.35;49.36
80938;BME280;70395;51.382;7.074;2023-06-04T05:19:39;100892.97;;;12.51;49.32
80938;BME280;70395;51.382;7.074;2023-06-04T05:22:05;100889.13;;;12.64;49.13
80938;BME280;70395;51.382;7.074;2023-06-04T05:24:31;100887.09;;;12.76;49.04
80938;BME280;70395;51.382;7.074;2023-06-04T05:26:58;100884.38;;;12.86;48.93
80938;BME280;70395;51.382;7.074;2023-06-04T05:29:24;100888.91;;;12.95;48.90
80938;BME280;70395;51.382;7.074;2023-06-04T05:31:50;100890.41;;;13.07;48.63
80938;BME280;70395;51.382;7.074;2023-06-04T05:34:16;100889.53;;;13.17;48.26
80938;BME280;70395;51.382;7.074;2023-06-04T05:36:43;100885.94;;;13.26;48.08
80938;BME280;70395;51.382;7.074;2023-06-04T05:39:09;100885.88;;;13.36;48.31
80938;BME280;70395;51.382;7.074;2023-06-04T05:41:36;100886.53;;;13.48;48.05
80938;BME280;70395;51.382;7.074;2023-06-04T05:44:03;100885.50;;;13.59;48.05
80938;BME280;70395;51.382;7.074;2023-06-04T05:46:29;100890.00;;;13.69;47.77
80938;BME280;70395;51.382;7.074;2023-06-04T05:48:54;100895.16;;;13.80;47.72
80938;BME280;70395;51.382;7.074;2023-06-04T05:51:20;100901.00;;;13.94;47.52
80938;BME280;70395;51.382;7.074;2023-06-04T05:53:47;100896.94;;;14.08;47.24
80938;BME280;70395;51.382;7.074;2023-06-04T05:56:13;100900.09;;;14.22;47.08
80938;BME280;70395;51.382;7.074;2023-06-04T05:58:39;100897.00;;;14.35;46.80
80938;BME280;70395;51.382;7.074;2023-06-04T06:01:05;100903.66;;;14.49;46.81
80938;BME280;70395;51.382;7.074;2023-06-04T06:03:30;100901.38;;;14.62;46.57
80938;BME280;70395;51.382;7.074;2023-06-04T06:05:57;100913.47;;;14.77;46.21
80938;BME280;70395;51.382;7.074;2023-06-04T06:08:23;100909.69;;;14.88;45.77
80938;BME280;70395;51.382;7.074;2023-06-04T06:10:50;100907.56;;;15.00;45.61
80938;BME280;70395;51.382;7.074;2023-06-04T06:13:16;100911.53;;;15.14;45.30
80938;BME280;70395;51.382;7.074;2023-06-04T06:15:41;100907.69;;;15.25;45.15
80938;BME280;70395;51.382;7.074;2023-06-04T06:18:07;100906.38;;;15.37;45.07
80938;BME280;70395;51.382;7.074;2023-06-04T06:20:33;100909.47;;;15.51;44.15
80938;BME280;70395;51.382;7.074;2023-06-04T06:23:06;100917.44;;;15.61;43.97
80938;BME280;70395;51.382;7.074;2023-06-04T06:25:32;100918.69;;;15.75;43.91
80938;BME280;70395;51.382;7.074;2023-06-04T06:27:58;100926.16;;;15.90;43.81
80938;BME280;70395;51.382;7.074;2023-06-04T06:30:24;100923.66;;;16.05;43.12
80938;BME280;70395;51.382;7.074;2023-06-04T06:32:50;100926.03;;;16.16;42.26
80938;BME280;70395;51.382;7.074;2023-06-04T06:35:17;100928.41;;;16.28;42.16
80938;BME280;70395;51.382;7.074;2023-06-04T06:37:43;100920.47;;;16.43;42.17
80938;BME280;70395;51.382;7.074;2023-06-04T06:40:10;100922.31;;;16.59;41.85
80938;BME280;70395;51.382;7.074;2023-06-04T06:42:36;100920.78;;;16.73;41.65
80938;BME280;70395;51.382;7.074;2023-06-04T06:45:02;100922.28;;;16.84;41.77
80938;BME280;70395;51.382;7.074;2023-06-04T06:47:28;100917.34;;;16.96;40.94
80938;BME280;70395;51.382;7.074;2023-06-04T06:49:53;100926.97;;;17.07;40.62
80938;BME280;70395;51.382;7.074;2023-06-04T06:52:20;100926.47;;;17.20;40.59
80938;BME280;70395;51.382;7.074;2023-06-04T06:54:46;100923.50;;;17.30;39.81
80938;BME280;70395;51.382;7.074;2023-06-04T06:57:13;100920.13;;;17.37;39.97
80938;BME280;70395;51.382;7.074;2023-06-04T06:59:39;100925.81;;;17.50;40.13
80938;BME280;70395;51.382;7.074;2023-06-04T07:02:06;100935.75;;;17.66;40.10
80938;BME280;70395;51.382;7.074;2023-06-04T07:04:32;100936.31;;;17.85;39.83
80938;BME280;70395;51.382;7.074;2023-06-04T07:06:57;100935.53;;;18.00;39.14
80938;BME280;70395;51.382;7.074;2023-06-04T07:09:23;100942.72;;;18.16;39.28
80938;BME280;70395;51.382;7.074;2023-06-04T07:11:49;100930.91;;;18.32;38.77
80938;BME280;70395;51.382;7.074;2023-06-04T07:14:15;100935.19;;;18.50;38.15
80938;BME280;70395;51.382;7.074;2023-06-04T07:16:40;100931.28;;;18.68;38.53
80938;BME280;70395;51.382;7.074;2023-06-04T07:19:06;100936.19;;;18.88;37.53
80938;BME280;70395;51.382;7.074;2023-06-04T07:21:32;100941.81;;;19.01;37.15
80938;BME280;70395;51.382;7.074;2023-06-04T07:23:58;100930.84;;;19.10;36.54
80938;BME280;70395;51.382;7.074;2023-06-04T07:26:24;100940.81;;;19.18;37.10
80938;BME280;70395;51.382;7.074;2023-06-04T07:28:51;100941.00;;;19.31;36.57
80938;BME280;70395;51.382;7.074;2023-06-04T07:31:17;100936.59;;;19.45;36.25
80938;BME280;70395;51.382;7.074;2023-06-04T07:33:43;100935.50;;;19.62;35.81
80938;BME280;70395;51.382;7.074;2023-06-04T07:36:13;100943.25;;;19.80;35.94
80938;BME280;70395;51.382;7.074;2023-06-04T07:38:40;100932.78;;;19.99;35.37
80938;BME280;70395;51.382;7.074;2023-06-04T07:41:06;100932.38;;;20.17;35.60
80938;BME280;70395;51.382;7.074;2023-06-04T07:43:34;100932.75;;;20.36;35.73
80938;BME280;70395;51.382;7.074;2023-06-04T07:46:04;100937.72;;;20.54;35.58
80938;BME280;70395;51.382;7.074;2023-06-04T07:48:30;100947.28;;;20.72;34.67
80938;BME280;70395;51.382;7.074;2023-06-04T07:50:59;100946.75;;;20.84;33.90
80938;BME280;70395;51.382;7.074;2023-06-04T07:53:26;100951.25;;;20.98;33.76
80938;BME280;70395;51.382;7.074;2023-06-04T07:55:53;100936.03;;;21.11;33.58
80938;BME280;70395;51.382;7.074;2023-06-04T07:58:19;100940.53;;;21.25;33.38
80938;BME280;70395;51.382;7.074;2023-06-04T08:00:45;100934.47;;;21.37;32.45
80938;BME280;70395;51.382;7.074;2023-06-04T08:03:11;100932.00;;;21.42;32.72
80938;BME280;70395;51.382;7.074;2023-06-04T08:05:37;100933.91;;;21.48;32.45
80938;BME280;70395;51.382;7.074;2023-06-04T08:08:03;100935.19;;;21.53;32.04
80938;BME280;70395;51.382;7.074;2023-06-04T08:10:30;100939.41;;;21.55;32.17
80938;BME280;70395;51.382;7.074;2023-06-04T08:12:56;100932.69;;;21.58;32.37
80938;BME280;70395;51.382;7.074;2023-06-04T08:15:22;100936.69;;;21.62;31.81
80938;BME280;70395;51.382;7.074;2023-06-04T08:17:49;100927.66;;;21.68;32.36
80938;BME280;70395;51.382;7.074;2023-06-04T08:20:15;100931.25;;;21.76;32.10
80938;BME280;70395;51.382;7.074;2023-06-04T08:22:41;100929.00;;;21.86;32.57
80938;BME280;70395;51.382;7.074;2023-06-04T08:25:07;100935.16;;;22.02;32.52
80938;BME280;70395;51.382;7.074;2023-06-04T08:27:34;100947.34;;;22.20;32.24
80938;BME280;70395;51.382;7.074;2023-06-04T08:30:00;100945.88;;;22.37;32.20
80938;BME280;70395;51.382;7.074;2023-06-04T08:32:27;100940.66;;;22.56;31.60
80938;BME280;70395;51.382;7.074;2023-06-04T08:34:54;100944.63;;;22.74;31.75
80938;BME280;70395;51.382;7.074;2023-06-04T08:37:20;100937.06;;;22.90;31.89
80938;BME280;70395;51.382;7.074;2023-06-04T08:39:46;100943.75;;;23.08;31.00
80938;BME280;70395;51.382;7.074;2023-06-04T08:42:41;100943.69;;;23.21;31.04
80938;BME280;70395;51.382;7.074;2023-06-04T08:45:12;100943.03;;;23.39;30.48
80938;BME280;70395;51.382;7.074;2023-06-04T08:47:48;100945.28;;;23.56;30.53
80938;BME280;70395;51.382;7.074;2023-06-04T08:50:18;100944.56;;;23.74;30.39
80938;BME280;70395;51.382;7.074;2023-06-04T08:52:44;100940.06;;;23.94;31.15
80938;BME280;70395;51.382;7.074;2023-06-04T08:55:14;100930.88;;;24.07;29.92
80938;BME280;70395;51.382;7.074;2023-06-04T08:57:40;100942.13;;;24.24;30.03
80938;BME280;70395;51.382;7.074;2023-06-04T09:00:09;100937.41;;;24.38;29.11
80938;BME280;70395;51.382;7.074;2023-06-04T09:02:38;100933.97;;;24.50;29.06
80938;BME280;70395;51.382;7.074;2023-06-04T09:05:06;100944.59;;;24.65;28.30
80938;BME280;70395;51.382;7.074;2023-06-04T09:07:37;100931.16;;;24.82;27.82
80938;BME280;70395;51.382;7.074;2023-06-04T09:10:09;100930.75;;;24.97;27.73
80938;BME280;70395;51.382;7.074;2023-06-04T09:12:41;100946.13;;;25.24;27.66
80938;BME280;70395;51.382;7.074;2023-06-04T09:15:08;100949.75;;;25.56;26.89
80938;BME280;70395;51.382;7.074;2023-06-04T09:17:34;100936.03;;;25.86;26.45
80938;BME280;70395;51.382;7.074;2023-06-04T09:20:00;100937.69;;;26.30;25.02
80938;BME280;70395;51.382;7.074;2023-06-04T09:22:37;100937.03;;;26.95;24.95
80938;BME280;70395;51.382;7.074;2023-06-04T09:25:07;100944.97;;;27.74;22.52
80938;BME280;70395;51.382;7.074;2023-06-04T09:27:44;100943.13;;;28.61;22.28
80938;BME280;70395;51.382;7.074;2023-06-04T09:30:10;100948.06;;;29.39;21.33
80938;BME280;70395;51.382;7.074;2023-06-04T09:32:36;100949.22;;;29.93;20.10
80938;BME280;70395;51.382;7.074;2023-06-04T09:35:13;100939.44;;;30.46;20.46
80938;BME280;70395;51.382;7.074;2023-06-04T09:37:52;100947.34;;;31.13;19.89
80938;BME280;70395;51.382;7.074;2023-06-04T09:40:18;100947.28;;;31.78;18.37
80938;BME280;70395;51.382;7.074;2023-06-04T09:42:48;100941.50;;;32.27;18.39
80938;BME280;70395;51.382;7.074;2023-06-04T09:45:33;100946.44;;;32.77;17.72
80938;BME280;70395;51.382;7.074;2023-06-04T09:48:02;100947.97;;;33.20;17.47
80938;BME280;70395;51.382;7.074;2023-06-04T09:50:31;100945.31;;;33.55;16.65
80938;BME280;70395;51.382;7.074;2023-06-04T09:53:19;100950.75;;;33.76;16.68
80938;BME280;70395;51.382;7.074;2023-06-04T09:56:02;100945.97;;;33.87;15.62
80938;BME280;70395;51.382;7.074;2023-06-04T09:58:37;100955.84;;;34.03;16.21
80938;BME280;70395;51.382;7.074;2023-06-04T10:01:05;100955.28;;;34.36;15.16
80938;BME280;70395;51.382;7.074;2023-06-04T10:03:35;100947.22;;;34.65;15.27
80938;BME280;70395;51.382;7.074;2023-06-04T10:06:04;100946.22;;;34.85;14.58
80938;BME280;70395;51.382;7.074;2023-06-04T10:08:32;100934.75;;;35.11;14.87
80938;BME280;70395;51.382;7.074;2023-06-04T10:11:01;100940.53;;;35.39;14.81
80938;BME280;70395;51.382;7.074;2023-06-04T10:13:31;100947.75;;;35.60;14.09
80938;BME280;70395;51.382;7.074;2023-06-04T10:16:01;100947.22;;;35.97;14.20
80938;BME280;70395;51.382;7.074;2023-06-04T10:18:28;100942.75;;;36.29;13.55
80938;BME280;70395;51.382;7.074;2023-06-04T10:20:57;100937.97;;;36.49;13.36
80938;BME280;70395;51.382;7.074;2023-06-04T10:23:24;100934.06;;;36.64;13.15
80938;BME280;70395;51.382;7.074;2023-06-04T10:25:51;100936.25;;;36.95;13.26
80938;BME280;70395;51.382;7.074;2023-06-04T10:28:23;100928.97;;;37.23;12.71
80938;BME280;70395;51.382;7.074;2023-06-04T10:30:50;100923.97;;;37.48;12.82
80938;BME280;70395;51.382;7.074;2023-06-04T10:33:21;100925.75;;;37.67;12.54
80938;BME280;70395;51.382;7.074;2023-06-04T10:35:54;100930.31;;;37.85;12.36
80938;BME280;70395;51.382;7.074;2023-06-04T10:38:23;100932.00;;;38.10;11.81
80938;BME280;70395;51.382;7.074;2023-06-04T10:40:50;100931.69;;;38.20;12.07
80938;BME280;70395;51.382;7.074;2023-06-04T10:43:16;100927.03;;;38.06;11.37
80938;BME280;70395;51.382;7.074;2023-06-04T10:45:42;100931.75;;;37.97;12.24
80938;BME280;70395;51.382;7.074;2023-06-04T10:48:12;100913.75;;;38.12;11.98
80938;BME280;70395;51.382;7.074;2023-06-04T10:50:51;100926.66;;;38.31;11.64
80938;BME280;70395;51.382;7.074;2023-06-04T10:53:18;100924.72;;;38.32;12.00
80938;BME280;70395;51.382;7.074;2023-06-04T10:55:49;100919.00;;;38.37;11.28
80938;BME280;70395;51.382;7.074;2023-06-04T10:58:15;100927.28;;;38.51;11.09
80938;BME280;70395;51.382;7.074;2023-06-04T11:00:44;100922.22;;;38.62;11.20
80938;BME280;70395;51.382;7.074;2023-06-04T11:03:15;100912.94;;;38.44;10.74
80938;BME280;70395;51.382;7.074;2023-06-04T11:05:44;100907.91;;;38.00;10.95
80938;BME280;70395;51.382;7.074;2023-06-04T11:08:12;100919.03;;;37.68;10.78
80938;BME280;70395;51.382;7.074;2023-06-04T11:10:43;100922.31;;;37.70;11.48
80938;BME280;70395;51.382;7.074;2023-06-04T11:13:10;100911.34;;;37.96;10.55
80938;BME280;70395;51.382;7.074;2023-06-04T11:15:46;100912.03;;;38.02;11.44
80938;BME280;70395;51.382;7.074;2023-06-04T11:18:19;100909.50;;;38.24;11.50
80938;BME280;70395;51.382;7.074;2023-06-04T11:20:48;100912.78;;;38.49;10.21
80938;BME280;70395;51.382;7.074;2023-06-04T11:23:16;100905.00;;;38.14;10.12
80938;BME280;70395;51.382;7.074;2023-06-04T11:25:43;100907.38;;;37.74;10.59
80938;BME280;70395;51.382;7.074;2023-06-04T11:28:16;100902.22;;;37.45;11.15
80938;BME280;70395;51.382;7.074;2023-06-04T11:30:59;100895.50;;;37.32;11.61
80938;BME280;70395;51.382;7.074;2023-06-04T11:33:29;100896.91;;;37.80;11.38
80938;BME280;70395;51.382;7.074;2023-06-04T11:35:55;100898.72;;;38.40;10.58
80938;BME280;70395;51.382;7.074;2023-06-04T11:38:21;100898.16;;;38.61;9.91
80938;BME280;70395;51.382;7.074;2023-06-04T11:40:58;100900.78;;;38.25;10.00
80938;BME280;70395;51.382;7.074;2023-06-04T11:43:24;100899.41;;;38.37;10.67
80938;BME280;70395;51.382;7.074;2023-06-04T11:45:50;100899.50;;;38.63;9.85
80938;BME280;70395;51.382;7.074;2023-06-04T11:48:17;100891.94;;;38.82;9.67
80938;BME280;70395;51.382;7.074;2023-06-04T11:50:43;100897.97;;;39.16;10.10
80938;BME280;70395;51.382;7.074;2023-06-04T11:53:10;100893.84;;;39.22;8.88
80938;BME280;70395;51.382;7.074;2023-06-04T11:55:36;100893.66;;;38.92;9.51
80938;BME280;70395;51.382;7.074;2023-06-04T11:58:03;100888.78;;;38.66;9.76
80938;BME280;70395;51.382;7.074;2023-06-04T12:00:29;100886.00;;;38.66;9.85
80938;BME280;70395;51.382;7.074;2023-06-04T12:02:56;100893.16;;;38.99;9.17
80938;BME280;70395;51.382;7.074;2023-06-04T12:05:30;100888.28;;;39.49;9.53
80938;BME280;70395;51.382;7.074;2023-06-04T12:08:10;100887.75;;;39.91;8.91
80938;BME280;70395;51.382;7.074;2023-06-04T12:10:43;100885.19;;;40.25;8.73
80938;BME280;70395;51.382;7.074;2023-06-04T12:13:10;100882.25;;;40.52;8.60
80938;BME280;70395;51.382;7.074;2023-06-04T12:15:36;100877.25;;;40.58;8.98
80938;BME280;70395;51.382;7.074;2023-06-04T12:18:02;100886.16;;;40.12;8.65
80938;BME280;70395;51.382;7.074;2023-06-04T12:20:40;100878.50;;;39.28;9.17
80938;BME280;70395;51.382;7.074;2023-06-04T12:23:07;100875.06;;;38.96;9.33
80938;BME280;70395;51.382;7.074;2023-06-04T12:25:34;100874.03;;;38.92;9.84
80938;BME280;70395;51.382;7.074;2023-06-04T12:28:02;100871.94;;;39.15;9.89
80938;BME280;70395;51.382;7.074;2023-06-04T12:30:40;100870.47;;;39.45;9.32
80938;BME280;70395;51.382;7.074;2023-06-04T12:33:06;100866.78;;;39.71;9.65
80938;BME280;70395;51.382;7.074;2023-06-04T12:35:34;100861.41;;;40.14;9.38
80938;BME280;70395;51.382;7.074;2023-06-04T12:38:03;100860.13;;;40.50;9.24
80938;BME280;70395;51.382;7.074;2023-06-04T12:40:29;100867.31;;;40.91;9.99
80938;BME280;70395;51.382;7.074;2023-06-04T12:42:54;100864.81;;;41.19;8.94
80938;BME280;70395;51.382;7.074;2023-06-04T12:45:20;100869.88;;;41.05;8.67
80938;BME280;70395;51.382;7.074;2023-06-04T12:47:46;100869.44;;;40.72;8.55
80938;BME280;70395;51.382;7.074;2023-06-04T12:50:13;100865.94;;;40.75;8.87
80938;BME280;70395;51.382;7.074;2023-06-04T12:52:38;100866.28;;;40.95;8.12
80938;BME280;70395;51.382;7.074;2023-06-04T12:55:05;100862.41;;;41.09;8.80
80938;BME280;70395;51.382;7.074;2023-06-04T12:57:31;100855.78;;;41.14;8.80